5PN3 weather

Tyrone Hospital Heliport
Tyrone, Pennsylvania, United States

Public forecast

Using degrees Fahrenheit for public forecast. Weather courtesy of forecast.io.

Closest aviation weather report (METAR) to Tyrone Hospital Heliport

Closest report is University Park Airport, 21.3 nm (39.4 km) ENE. Retrieved 2019/12/05 18:53 UTC (19 minutes ago):

KUNV 051853Z 28016G22KT 10SM BKN031 BKN037 OVC045 02/M04 A2991

Closest aviation forecast (TAF) to Tyrone Hospital Heliport

Closest forecast is University Park Airport, 21.3 nm (39.4 km) ENE. Retrieved 2019/12/05 18:45 UTC (27 minutes ago):

TAF KUNV 051743Z 0518/0618 28015G20KT P6SM OVC040 FM060000 27007KT P6SM SCT040 FM060600 23007KT P6SM BKN100 FM061500 26010KT P6SM BKN050